Time;durP1;ratioP1;P1;durP2;ratioP2;P2;SDS_P1;SDS_P2;PMS_P1;PMS_P2;Temp;Humidity;BMP_temperature;BMP_pressure;BME280_temperature;BME280_humidity;BME280_pressure;Samples;Min_cycle;Max_cycle;Signal;HPM_P1;HPM_P2
2021/04/11 00:00:46;;;;;;;1.55;1.20;;;;;;;;;;4987314;28;20522;-81
2021/04/11 00:03:26;;;;;;;1.45;1.02;;;12.70;47.70;;;;;;4987249;28;20018;-81
2021/04/11 00:05:53;;;;;;;2.58;1.10;;;12.60;47.60;;;;;;4986089;28;20051;-81
2021/04/11 00:08:19;;;;;;;4.43;1.10;;;12.60;48.00;;;;;;4984851;28;20404;-81
2021/04/11 00:10:54;;;;;;;2.75;0.82;;;12.70;47.40;;;;;;4987689;28;20044;-81
2021/04/11 00:13:28;;;;;;;1.55;1.15;;;12.70;47.40;;;;;;4986992;28;20062;-82
2021/04/11 00:15:54;;;;;;;1.92;1.10;;;;;;;;;;4986560;28;20647;-81
2021/04/11 00:18:20;;;;;;;1.95;1.48;;;;;;;;;;4984881;28;20100;-81
2021/04/11 00:20:46;;;;;;;4.60;1.60;;;;;;;;;;4986492;28;20108;-81
2021/04/11 00:23:13;;;;;;;1.58;1.23;;;;;;;;;;4983858;28;20117;-81
2021/04/11 00:25:40;;;;;;;0.98;0.82;;;13.00;46.70;;;;;;5001507;28;20038;-81
2021/04/11 00:28:07;;;;;;;5.45;1.42;;;13.00;47.00;;;;;;4985774;28;20057;-82
2021/04/11 00:30:34;;;;;;;3.95;0.70;;;;;;;;;;4986339;28;20559;-81
2021/04/11 00:33:01;;;;;;;2.90;1.50;;;12.90;47.40;;;;;;4986059;28;20046;-81
2021/04/11 00:35:28;;;;;;;1.23;1.13;;;12.80;47.50;;;;;;4986517;28;20033;-80
2021/04/11 00:37:54;;;;;;;1.00;0.70;;;;;;;;;;4986255;28;20073;-80
2021/04/11 00:40:25;;;;;;;0.93;0.85;;;12.70;47.50;;;;;;4985966;28;20050;-81
2021/04/11 00:43:04;;;;;;;1.48;0.73;;;12.60;47.90;;;;;;4985591;28;20041;-81
2021/04/11 00:45:41;;;;;;;1.13;0.75;;;12.70;51.50;;;;;;4986505;28;20026;-81
2021/04/11 00:48:08;;;;;;;1.77;0.85;;;12.40;48.00;;;;;;4983565;28;20042;-81
2021/04/11 00:50:35;;;;;;;1.80;1.20;;;;;;;;;;4985899;28;20117;-81
2021/04/11 00:53:01;;;;;;;1.05;0.82;;;;;;;;;;4984749;28;20081;-82
2021/04/11 00:55:27;;;;;;;0.70;0.70;;;12.40;48.20;;;;;;4986748;28;20026;-80
2021/04/11 00:57:53;;;;;;;0.93;0.63;;;;;;;;;;4985247;28;20026;-81
2021/04/11 01:00:24;;;;;;;2.00;0.80;;;12.20;48.90;;;;;;4985233;28;20030;-82
2021/04/11 01:02:50;;;;;;;2.40;1.00;;;;;;;;;;4984959;28;20033;-80
2021/04/11 01:05:31;;;;;;;0.85;0.68;;;12.10;48.90;;;;;;4985736;28;20030;-81
2021/04/11 01:07:58;;;;;;;2.97;1.23;;;12.20;49.10;;;;;;4985323;28;20038;-81
2021/04/11 01:10:33;;;;;;;0.50;0.50;;;12.30;51.50;;;;;;4985945;28;20034;-81
2021/04/11 01:12:59;;;;;;;0.68;0.68;;;;;;;;;;4982106;28;20121;-81
2021/04/11 01:15:31;;;;;;;1.88;1.00;;;12.10;48.50;;;;;;4983856;28;20521;-80
2021/04/11 01:17:57;;;;;;;1.05;0.70;;;;;;;;;;4982387;28;20479;-81
2021/04/11 01:20:25;;;;;;;14.95;1.15;;;12.00;49.50;;;;;;4985226;28;20028;-81
2021/04/11 01:22:55;;;;;;;1.20;0.88;;;;;;;;;;4985366;28;20030;-81
2021/04/11 01:25:25;;;;;;;0.75;0.73;;;11.90;48.60;;;;;;4986035;28;20157;-81
2021/04/11 01:27:51;;;;;;;1.10;0.63;;;;;;;;;;4981812;28;20073;-81
2021/04/11 01:30:27;;;;;;;4.65;1.15;;;11.80;49.10;;;;;;4982670;28;20030;-80
2021/04/11 01:32:53;;;;;;;0.90;0.60;;;;;;;;;;4984087;28;20033;-81
2021/04/11 01:35:22;;;;;;;3.10;0.52;;;11.60;50.00;;;;;;4985480;28;20034;-81
2021/04/11 01:37:51;;;;;;;0.57;0.38;;;11.70;50.30;;;;;;4986182;28;20491;-82
2021/04/11 01:40:24;;;;;;;1.77;0.98;;;11.70;50.10;;;;;;4983792;28;20022;-81
2021/04/11 01:42:50;;;;;;;1.30;0.73;;;;;;;;;;4984405;28;20041;-81
2021/04/11 01:45:16;;;;;;;1.80;0.68;;;11.70;49.50;;;;;;4985787;28;20030;-81
2021/04/11 01:47:42;;;;;;;1.08;0.73;;;;;;;;;;4982283;28;20027;-81
2021/04/11 01:50:11;;;;;;;0.65;0.60;;;11.70;50.30;;;;;;4981949;28;20180;-80
2021/04/11 01:52:40;;;;;;;4.03;0.60;;;13.20;52.00;;;;;;4984064;28;20421;-81
2021/04/11 01:55:08;;;;;;;0.80;0.80;;;11.50;54.10;;;;;;4984246;28;20137;-81
2021/04/11 01:57:35;;;;;;;1.15;0.60;;;11.60;50.90;;;;;;4986114;28;20042;-81
2021/04/11 02:00:11;;;;;;;0.57;0.57;;;11.80;50.10;;;;;;4990076;28;20165;-81
2021/04/11 02:02:38;;;;;;;0.75;0.68;;;;;;;;;;4980439;28;20033;-82
2021/04/11 02:05:17;;;;;;;0.90;0.77;;;11.60;48.40;;;;;;4988369;28;20037;-81
2021/04/11 02:07:44;;;;;;;1.02;0.65;;;;;;;;;;4989649;28;20593;-82
2021/04/11 02:10:11;;;;;;;1.88;0.98;;;11.30;70.80;;;;;;4987029;28;20041;-81
2021/04/11 02:12:37;;;;;;;1.30;0.88;;;;;;;;;;4986468;28;20069;-82
2021/04/11 02:15:23;;;;;;;1.30;0.85;;;10.30;51.30;;;;;;4988516;28;20506;-81
2021/04/11 02:17:49;;;;;;;2.25;0.85;;;;;;;;;;4988605;28;20026;-81
2021/04/11 02:20:15;;;;;;;1.27;0.88;;;11.50;52.70;;;;;;4982265;28;20129;-81
2021/04/11 02:22:42;;;;;;;0.68;0.68;;;;;;;;;;4985825;28;20034;-81
2021/04/11 02:25:14;;;;;;;1.52;1.13;;;11.10;52.10;;;;;;4985814;28;20098;-81
2021/04/11 02:27:40;;;;;;;0.60;0.60;;;;;;;;;;4988704;28;20030;-81
2021/04/11 02:30:11;;;;;;;3.05;0.75;;;11.70;51.30;;;;;;4985976;28;20033;-81
2021/04/11 02:32:37;;;;;;;1.13;0.70;;;;;;;;;;4987771;28;20200;-82
2021/04/11 02:35:08;;;;;;;0.30;0.30;;;11.80;50.70;;;;;;4989001;28;20033;-81
2021/04/11 02:37:36;;;;;;;0.65;0.60;;;11.80;50.60;;;;;;4989187;28;20030;-81
2021/04/11 02:40:08;;;;;;;1.73;0.65;;;11.90;50.50;;;;;;4985631;28;20483;-81
2021/04/11 02:42:35;;;;;;;0.65;0.55;;;12.00;50.60;;;;;;4988195;28;20422;-82
2021/04/11 02:45:11;;;;;;;0.52;0.45;;;12.10;50.50;;;;;;4987259;28;20114;-81
2021/04/11 02:47:37;;;;;;;0.30;0.30;;;;;;;;;;4988685;28;20076;-80
2021/04/11 02:50:05;;;;;;;1.25;0.63;;;12.10;50.40;;;;;;4986485;28;20080;-81
2021/04/11 02:52:37;;;;;;;0.35;0.35;;;12.10;50.80;;;;;;4988791;28;20050;-81
2021/04/11 02:55:04;;;;;;;1.67;1.10;;;12.10;50.70;;;;;;4986546;28;20030;-81
2021/04/11 02:57:30;;;;;;;0.47;0.47;;;;;;;;;;4983376;28;20034;-82
2021/04/11 02:59:56;;;;;;;0.35;0.35;;;;;;;;;;4985436;28;20077;-81
2021/04/11 03:02:23;;;;;;;1.10;0.40;;;12.40;50.40;;;;;;4983607;28;20030;-81
2021/04/11 03:04:54;;;;;;;0.63;0.40;;;12.50;49.80;;;;;;4988685;28;20088;-81
2021/04/11 03:07:45;;;;;;;0.40;0.40;;;12.60;49.70;;;;;;4989426;28;20407;-81
2021/04/11 03:10:17;;;;;;;0.68;0.68;;;12.60;49.70;;;;;;4984562;28;20038;-81
2021/04/11 03:12:44;;;;;;;0.30;0.30;;;;;;;;;;4988175;28;20069;-81
2021/04/11 03:15:12;;;;;;;0.30;0.30;;;12.70;68.50;;;;;;4987264;28;20033;-81
2021/04/11 03:17:39;;;;;;;0.35;0.35;;;12.70;49.90;;;;;;4988562;28;20030;-81
2021/04/11 03:20:14;;;;;;;0.43;0.40;;;12.70;49.50;;;;;;4985895;28;20455;-81
2021/04/11 03:22:41;;;;;;;0.25;0.25;;;;;;;;;;4988387;28;20733;-81
2021/04/11 03:25:10;;;;;;;0.55;0.45;;;12.70;49.70;;;;;;4986320;28;20025;-81
2021/04/11 03:27:50;;;;;;;0.50;0.50;;;12.60;49.70;;;;;;4988845;28;20198;-82
2021/04/11 03:30:23;;;;;;;1.33;0.73;;;12.70;49.60;;;;;;4986319;28;20528;-81
2021/04/11 03:32:53;;;;;;;0.30;0.30;;;12.80;49.40;;;;;;4988072;28;20778;-82
2021/04/11 03:35:23;;;;;;;0.65;0.50;;;12.90;49.50;;;;;;4986973;28;20507;-82
2021/04/11 03:37:51;;;;;;;0.38;0.35;;;12.90;49.30;;;;;;4988360;28;20057;-82
2021/04/11 03:40:23;;;;;;;0.68;0.68;;;12.80;49.20;;;;;;4986374;28;20118;-80
2021/04/11 03:42:51;;;;;;;0.30;0.30;;;12.80;49.40;;;;;;4986523;28;20026;-81
2021/04/11 03:45:18;;;;;;;0.57;0.57;;;12.80;50.00;;;;;;4982581;28;20038;-81
2021/04/11 03:47:54;;;;;;;1.90;0.40;;;12.20;49.20;;;;;;4988056;28;20104;-81
2021/04/11 03:50:32;;;;;;;0.77;0.77;;;13.10;71.30;;;;;;4986721;28;20062;-81
2021/04/11 03:53:01;;;;;;;2.05;0.50;;;;;;;;;;4986171;28;20197;-82
2021/04/11 03:55:31;;;;;;;0.35;0.30;;;12.80;49.60;;;;;;4987294;28;20022;-81
2021/04/11 03:58:03;;;;;;;0.68;0.50;;;12.90;49.70;;;;;;4985815;28;20023;-81
2021/04/11 04:00:36;;;;;;;0.40;0.40;;;12.80;49.80;;;;;;4986113;28;20121;-82
2021/04/11 04:03:12;;;;;;;0.47;0.40;;;12.80;49.60;;;;;;4986176;28;20053;-81
2021/04/11 04:05:39;;;;;;;0.38;0.38;;;12.80;49.40;;;;;;4987076;28;20072;-80
2021/04/11 04:08:06;;;;;;;0.52;0.40;;;12.70;49.40;;;;;;4984944;28;20042;-81
2021/04/11 04:10:42;;;;;;;0.30;0.30;;;12.80;49.30;;;;;;4987336;28;20121;-81
2021/04/11 04:13:08;;;;;;;0.57;0.40;;;;;;;;;;4986557;28;20030;-81
2021/04/11 04:15:34;;;;;;;1.00;0.32;;;;;;;;;;5001191;28;20034;-81
2021/04/11 04:18:00;;;;;;;0.50;0.40;;;;;;;;;;4985506;28;20041;-81
2021/04/11 04:20:50;;;;;;;0.30;0.30;;;12.90;49.50;;;;;;4985299;28;20050;-81
2021/04/11 04:23:24;;;;;;;0.40;0.40;;;12.90;49.70;;;;;;4985389;28;20026;-81
2021/04/11 04:26:18;;;;;;;0.63;0.50;;;12.90;49.50;;;;;;4983511;28;20049;-80
2021/04/11 04:29:02;;;;;;;0.60;0.45;;;13.00;49.20;;;;;;4979426;28;20035;-81
2021/04/11 04:31:33;;;;;;;0.75;0.55;;;13.10;70.40;;;;;;4985978;28;20038;-81
2021/04/11 04:34:17;;;;;;;0.20;0.20;;;12.90;69.40;;;;;;4987181;28;20026;-81
2021/04/11 04:37:06;;;;;;;0.95;0.32;;;13.70;49.90;;;;;;4984083;28;20081;-81
2021/04/11 04:39:46;;;;;;;0.25;0.25;;;12.80;70.20;;;;;;4980211;28;20125;-80
2021/04/11 04:42:24;;;;;;;0.30;0.20;;;12.90;49.10;;;;;;4983390;28;20038;-79
2021/04/11 04:45:00;;;;;;;0.40;0.40;;;12.90;49.10;;;;;;4982995;28;20089;-81
2021/04/11 04:47:26;;;;;;;0.55;0.55;;;;;;;;;;4982065;28;20121;-80
2021/04/11 04:49:52;;;;;;;0.50;0.40;;;;;;;;;;4982431;28;20040;-81
2021/04/11 04:52:25;;;;;;;2.55;0.70;;;12.90;49.20;;;;;;4982458;28;20058;-81
2021/04/11 04:55:12;;;;;;;0.40;0.40;;;12.80;49.50;;;;;;4983024;28;20041;-81
2021/04/11 04:57:43;;;;;;;;;;;12.90;49.60;;;;;;4984674;28;20531;-81
2021/04/11 05:00:27;;;;;;;0.50;0.50;;;13.10;63.90;;;;;;4980839;28;19914;-81
2021/04/11 05:03:19;;;;;;;0.98;0.75;;;13.00;70.20;;;;;;4982833;28;20034;-82
2021/04/11 05:05:47;;;;;;;0.28;0.28;;;13.00;49.60;;;;;;4983184;28;20038;-81
2021/04/11 05:08:24;;;;;;;0.40;0.40;;;12.80;50.10;;;;;;4981492;28;20030;-81
2021/04/11 05:11:15;;;;;;;1.90;0.52;;;12.90;49.70;;;;;;4984803;28;20522;-81
2021/04/11 05:13:49;;;;;;;0.73;0.38;;;13.00;49.60;;;;;;4984545;28;20046;-81
2021/04/11 05:16:15;;;;;;;0.20;0.20;;;;;;;;;;4983862;28;20062;-80
2021/04/11 05:18:45;;;;;;;0.30;0.30;;;12.80;50.00;;;;;;4983709;28;20069;-82
2021/04/11 05:21:16;;;;;;;0.20;0.20;;;12.90;50.30;;;;;;4985855;28;20018;-82
2021/04/11 05:23:56;;;;;;;0.68;0.40;;;13.00;49.30;;;;;;4984862;28;20026;-81
2021/04/11 05:26:45;;;;;;;0.40;0.40;;;13.10;49.20;;;;;;4986040;28;20125;-81
2021/04/11 05:29:31;;;;;;;0.30;0.30;;;13.20;48.80;;;;;;4978610;28;20121;-81
2021/04/11 05:31:57;;;;;;;0.32;0.32;;;;;;;;;;4986037;28;20045;-81
2021/04/11 05:34:25;;;;;;;1.35;0.63;;;13.10;49.00;;;;;;4987522;28;20060;-81
2021/04/11 05:36:51;;;;;;;0.98;0.80;;;;;;;;;;4985778;28;20112;-80
2021/04/11 05:39:45;;;;;;;0.47;0.40;;;13.20;65.00;;;;;;4981867;28;20492;-80
2021/04/11 05:42:28;;;;;;;0.70;0.70;;;13.20;48.50;;;;;;4981294;28;20038;-81
2021/04/11 05:45:14;;;;;;;1.23;0.88;;;13.00;49.50;;;;;;4984835;28;20026;-81
2021/04/11 05:48:06;;;;;;;0.60;0.60;;;13.70;48.50;;;;;;4983604;28;20029;-81
2021/04/11 05:50:59;;;;;;;1.65;0.50;;;13.20;48.00;;;;;;4981065;28;20022;-81
2021/04/11 05:53:34;;;;;;;0.70;0.40;;;13.20;48.30;;;;;;4983130;28;20042;-79
2021/04/11 05:56:07;;;;;;;0.30;0.30;;;13.30;48.30;;;;;;4984957;28;20068;-82
2021/04/11 05:58:42;;;;;;;0.30;0.30;;;13.30;47.80;;;;;;4983953;28;20026;-80
2021/04/11 06:01:21;;;;;;;0.30;0.30;;;13.30;56.60;;;;;;4984283;28;20042;-81
2021/04/11 06:04:13;;;;;;;0.30;0.30;;;13.70;69.80;;;;;;4985937;28;20022;-81
2021/04/11 06:06:48;;;;;;;0.35;0.22;;;13.50;48.10;;;;;;4985745;28;20038;-80
2021/04/11 06:09:14;;;;;;;0.63;0.38;;;;;;;;;;4981524;28;20026;-81
2021/04/11 06:12:04;;;;;;;0.85;0.32;;;13.50;48.20;;;;;;4984905;28;20157;-81
2021/04/11 06:14:47;;;;;;;0.30;0.30;;;13.70;48.20;;;;;;4986170;28;20041;-81
2021/04/11 06:17:13;;;;;;;0.32;0.30;;;;;;;;;;4982619;28;20030;-81
2021/04/11 06:19:44;;;;;;;0.95;0.55;;;13.80;47.40;;;;;;4982147;28;20031;-81
2021/04/11 06:22:41;;;;;;;0.73;0.73;;;13.80;47.40;;;;;;4983754;28;20034;-81
2021/04/11 06:25:37;;;;;;;1.05;0.40;;;13.90;47.00;;;;;;4985685;28;20049;-81
2021/04/11 06:28:04;;;;;;;1.10;0.40;;;;;;;;;;4983150;28;20026;-80
2021/04/11 06:30:36;;;;;;;2.15;0.60;;;14.10;47.10;;;;;;4983277;28;20037;-81
2021/04/11 06:33:43;;;;;;;0.65;0.47;;;14.10;46.60;;;;;;4984613;28;20053;-81
2021/04/11 06:36:11;;;;;;;;;;;14.10;47.30;;;;;;5002687;28;20029;-81
2021/04/11 06:39:03;;;;;;;0.77;0.55;;;14.20;47.00;;;;;;4997904;28;19917;-80
2021/04/11 06:41:40;;;;;;;1.08;0.45;;;14.20;47.10;;;;;;5001274;28;20078;-81
2021/04/11 06:44:35;;;;;;;0.32;0.32;;;14.20;47.70;;;;;;5002001;28;20026;-80
2021/04/11 06:47:06;;;;;;;0.35;0.35;;;14.10;48.20;;;;;;5003094;28;20052;-80
2021/04/11 06:49:43;;;;;;;0.77;0.77;;;14.00;56.20;;;;;;4999623;28;20034;-81
2021/04/11 06:52:29;;;;;;;0.20;0.20;;;14.30;47.30;;;;;;5003700;28;20060;-81
2021/04/11 06:55:39;;;;;;;0.45;0.40;;;14.40;46.70;;;;;;5004879;28;20115;-81
2021/04/11 06:58:16;;;;;;;1.40;0.57;;;14.50;46.90;;;;;;4924990;29;20174;-80
2021/04/11 07:01:03;;;;;;;0.52;0.40;;;14.60;65.80;;;;;;4927035;29;20654;-81
2021/04/11 07:03:57;;;;;;;1.00;0.30;;;14.40;45.80;;;;;;4909780;29;20501;-80
2021/04/11 07:06:50;;;;;;;0.38;0.30;;;16.00;44.00;;;;;;4925020;29;20040;-81
2021/04/11 07:09:16;;;;;;;0.30;0.30;;;;;;;;;;4922726;29;20103;-81
2021/04/11 07:11:56;;;;;;;1.02;0.20;;;17.60;41.00;;;;;;4926363;29;20036;-80
2021/04/11 07:14:34;;;;;;;0.40;0.30;;;17.70;44.30;;;;;;4926582;29;20043;-80
2021/04/11 07:17:24;;;;;;;0.90;0.77;;;17.60;39.30;;;;;;4927201;29;20060;-80
2021/04/11 07:20:08;;;;;;;0.93;0.60;;;;;;;;;;4924896;29;20031;-81
2021/04/11 07:23:07;;;;;;;0.73;0.30;;;16.70;40.10;;;;;;4925483;29;20118;-81
2021/04/11 07:25:51;;;;;;;0.20;0.20;;;16.30;40.60;;;;;;4929596;29;20043;-80
2021/04/11 07:28:48;;;;;;;0.30;0.30;;;16.10;42.00;;;;;;4919718;29;20560;-82
2021/04/11 07:31:38;;;;;;;1.02;0.70;;;15.70;42.30;;;;;;4935677;29;20382;-81
2021/04/11 07:34:19;;;;;;;0.30;0.30;;;15.50;42.90;;;;;;4939664;28;20550;-80
2021/04/11 07:36:53;;;;;;;0.73;0.70;;;15.40;43.50;;;;;;4995916;28;20467;-81
2021/04/11 07:39:40;;;;;;;0.80;0.50;;;15.50;59.80;;;;;;4993527;28;20026;-80
2021/04/11 07:42:20;;;;;;;0.32;0.32;;;15.20;45.50;;;;;;4984424;28;20030;-80
2021/04/11 07:44:46;;;;;;;1.23;0.40;;;;;;;;;;4985571;28;20109;-80
2021/04/11 07:47:45;;;;;;;1.13;0.47;;;15.10;45.60;;;;;;4984832;28;20109;-81
2021/04/11 07:50:11;;;;;;;1.42;0.60;;;;;;;;;;4983828;28;20403;-81
2021/04/11 07:52:58;;;;;;;0.95;0.45;;;14.90;52.70;;;;;;4983812;28;20046;-80
2021/04/11 07:55:52;;;;;;;1.90;0.50;;;14.70;46.60;;;;;;4984585;28;20026;-81
2021/04/11 07:58:46;;;;;;;1.23;0.55;;;15.30;47.20;;;;;;4994701;28;20042;-81
2021/04/11 08:01:48;;;;;;;2.13;0.50;;;14.90;47.10;;;;;;4984807;28;20061;-81
2021/04/11 08:04:52;;;;;;;0.30;0.30;;;14.90;46.60;;;;;;4986497;28;20475;-82
2021/04/11 08:07:31;;;;;;;0.40;0.40;;;14.90;46.90;;;;;;5001358;28;20070;-81
2021/04/11 08:10:07;;;;;;;0.60;0.50;;;14.80;45.60;;;;;;4998327;28;20733;-80
2021/04/11 08:13:03;;;;;;;0.32;0.32;;;14.90;45.90;;;;;;4994906;28;20582;-81
2021/04/11 08:15:57;;;;;;;0.53;0.40;;;14.90;45.80;;;;;;5001048;28;20155;-81
2021/04/11 08:18:42;;;;;;;1.88;0.50;;;14.90;45.10;;;;;;4975741;28;20069;-81
2021/04/11 08:21:40;;;;;;;0.30;0.30;;;14.80;45.00;;;;;;5016958;28;20022;-81
2021/04/11 08:25:02;;;;;;;0.38;0.38;;;14.80;45.70;;;;;;5015432;28;20084;-81
2021/04/11 08:28:04;;;;;;;0.47;0.45;;;14.30;46.70;;;;;;4942563;28;20146;-79
2021/04/11 08:30:54;;;;;;;0.95;0.50;;;12.60;44.60;;;;;;4948773;28;20042;-79
2021/04/11 08:34:01;;;;;;;0.80;0.38;;;13.90;48.00;;;;;;4946848;28;20124;-79
2021/04/11 08:36:40;;;;;;;;;;;14.40;47.50;;;;;;4935489;28;20035;-78
2021/04/11 08:39:24;;;;;;;0.52;0.38;;;14.30;48.10;;;;;;4941700;28;19957;-78
2021/04/11 08:42:23;;;;;;;0.60;0.40;;;14.30;47.80;;;;;;4947501;28;20035;-80
2021/04/11 08:44:56;;;;;;;0.52;0.50;;;14.40;47.80;;;;;;4931512;28;20058;-82
2021/04/11 08:47:58;;;;;;;1.45;0.57;;;14.50;62.80;;;;;;4922906;29;20019;-81
2021/04/11 08:50:44;;;;;;;0.52;0.40;;;14.90;48.30;;;;;;4921941;29;20537;-82
2021/04/11 08:53:10;;;;;;;0.38;0.30;;;;;;;;;;4923714;29;20051;-80
2021/04/11 08:55:44;;;;;;;0.90;0.60;;;15.40;46.50;;;;;;4925352;29;20054;-81
2021/04/11 08:58:22;;;;;;;0.52;0.50;;;15.30;57.70;;;;;;4954082;28;20478;-81
2021/04/11 09:00:56;;;;;;;0.70;0.40;;;15.60;45.70;;;;;;4983814;28;20033;-80
2021/04/11 09:03:52;;;;;;;1.02;0.70;;;15.60;52.50;;;;;;4982432;28;20027;-80
2021/04/11 09:06:23;;;;;;;0.95;0.60;;;15.70;45.10;;;;;;4981883;28;20038;-80
2021/04/11 09:09:01;;;;;;;0.57;0.45;;;15.80;45.30;;;;;;4979738;28;20058;-81
2021/04/11 09:11:46;;;;;;;1.25;0.52;;;15.70;59.80;;;;;;4981465;28;20031;-79
2021/04/11 09:14:34;;;;;;;0.85;0.45;;;16.00;45.00;;;;;;4980591;28;20026;-82
2021/04/11 09:17:05;;;;;;;;;;;16.00;45.60;;;;;;4982010;28;20134;-81
2021/04/11 09:20:15;;;;;;;0.90;0.50;;;15.90;45.20;;;;;;4980326;28;19918;-79
2021/04/11 09:22:41;;;;;;;0.45;0.38;;;;;;;;;;4999712;28;20029;-80
2021/04/11 09:25:13;;;;;;;0.38;0.38;;;;;;;;;;5000265;28;20026;-80
2021/04/11 09:27:59;;;;;;;0.70;0.60;;;15.90;46.40;;;;;;4998525;28;20046;-78
2021/04/11 09:30:42;;;;;;;0.40;0.40;;;15.60;51.60;;;;;;4999753;28;20120;-79
2021/04/11 09:33:26;;;;;;;0.93;0.50;;;15.90;53.50;;;;;;5006538;28;20037;-79
2021/04/11 09:35:52;;;;;;;0.60;0.60;;;;;;;;;;5001699;28;20592;-80
2021/04/11 09:38:41;;;;;;;0.57;0.40;;;15.40;48.20;;;;;;4997459;28;20026;-80
2021/04/11 09:41:18;;;;;;;0.85;0.75;;;15.40;48.10;;;;;;5000648;28;20042;-82
2021/04/11 09:43:44;;;;;;;0.68;0.63;;;;;;;;;;5010776;28;20038;-77
2021/04/11 09:47:01;;;;;;;1.98;0.70;;;15.50;48.50;;;;;;5004742;28;20053;-77
2021/04/11 09:49:54;;;;;;;0.40;0.40;;;15.50;48.40;;;;;;4978659;28;20071;-78
2021/04/11 09:52:28;;;;;;;1.58;0.52;;;15.60;47.60;;;;;;4980732;28;20062;-79
2021/04/11 09:55:03;;;;;;;1.38;0.60;;;15.50;48.00;;;;;;4977483;28;20046;-80
2021/04/11 09:57:59;;;;;;;0.63;0.43;;;15.70;47.60;;;;;;4978354;28;20053;-81
2021/04/11 10:00:54;;;;;;;2.38;0.68;;;15.80;52.20;;;;;;4978053;28;20038;-81
2021/04/11 10:03:20;;;;;;;0.90;0.52;;;;;;;;;;4977258;28;20105;-79
2021/04/11 10:06:12;;;;;;;0.57;0.55;;;16.10;46.80;;;;;;4979293;28;20042;-81
2021/04/11 10:09:13;;;;;;;0.60;0.60;;;16.10;67.60;;;;;;4973328;28;20149;-81
2021/04/11 10:12:03;;;;;;;1.58;0.52;;;16.50;54.10;;;;;;4979765;28;20042;-80
2021/04/11 10:14:40;;;;;;;0.68;0.40;;;16.00;49.30;;;;;;4978408;28;20046;-79
2021/04/11 10:17:08;;;;;;;2.65;0.40;;;15.90;50.10;;;;;;4980567;28;20034;-78
2021/04/11 10:19:58;;;;;;;0.55;0.45;;;15.80;50.30;;;;;;4974305;28;20595;-79
2021/04/11 10:22:42;;;;;;;0.95;0.80;;;15.80;50.70;;;;;;4983838;28;20121;-80
2021/04/11 10:25:10;;;;;;;0.98;0.70;;;15.50;70.30;;;;;;4987126;28;20037;-80
2021/04/11 10:28:08;;;;;;;0.45;0.45;;;16.00;55.50;;;;;;4985630;28;20096;-81
2021/04/11 10:30:35;;;;;;;1.35;0.90;;;15.90;50.50;;;;;;4985413;28;20041;-80
2021/04/11 10:33:25;;;;;;;1.20;0.85;;;15.90;50.60;;;;;;4986007;28;20407;-80
2021/04/11 10:36:04;;;;;;;2.95;0.80;;;15.90;50.10;;;;;;4986658;28;20140;-80
2021/04/11 10:38:30;;;;;;;0.90;0.50;;;;;;;;;;4981652;28;20038;-81
2021/04/11 10:41:31;;;;;;;1.25;0.60;;;16.00;71.30;;;;;;4986579;28;20033;-79
2021/04/11 10:44:48;;;;;;;0.75;0.57;;;15.90;51.00;;;;;;4988139;28;20038;-80
2021/04/11 10:47:14;;;;;;;1.17;0.98;;;;;;;;;;4983266;28;20046;-80
2021/04/11 10:50:10;;;;;;;0.55;0.55;;;15.50;66.10;;;;;;4984002;28;20034;-80
2021/04/11 10:52:58;;;;;;;1.85;1.10;;;15.90;51.90;;;;;;4984250;28;20066;-80
2021/04/11 10:55:55;;;;;;;1.00;0.63;;;15.80;52.30;;;;;;4984331;28;20141;-79
2021/04/11 10:58:38;;;;;;;2.05;0.88;;;15.80;52.30;;;;;;4982240;28;20053;-80
2021/04/11 11:01:22;;;;;;;0.88;0.50;;;15.90;51.30;;;;;;4982895;28;20038;-79
2021/04/11 11:03:50;;;;;;;0.75;0.50;;;15.90;52.70;;;;;;4983353;28;20030;-80
2021/04/11 11:06:45;;;;;;;1.02;0.60;;;15.80;52.00;;;;;;4985356;28;20077;-80
2021/04/11 11:09:34;;;;;;;4.35;0.80;;;15.90;52.30;;;;;;4984955;28;20038;-80
2021/04/11 11:12:31;;;;;;;0.88;0.63;;;15.80;53.70;;;;;;4966067;28;20037;-80
2021/04/11 11:14:57;;;;;;;0.50;0.50;;;;;;;;;;4982676;28;20472;-80
2021/04/11 11:17:57;;;;;;;3.28;0.90;;;15.60;59.50;;;;;;4984647;28;20058;-79
2021/04/11 11:20:30;;;;;;;2.55;0.52;;;15.70;55.40;;;;;;4981996;28;20031;-79
2021/04/11 11:23:14;;;;;;;1.27;0.75;;;15.60;56.60;;;;;;4985835;28;20450;-81
2021/04/11 11:25:58;;;;;;;4.00;1.00;;;15.60;59.40;;;;;;4986815;28;20072;-81
2021/04/11 11:28:45;;;;;;;2.47;1.42;;;15.50;79.80;;;;;;4983021;28;20037;-80
2021/04/11 11:31:27;;;;;;;;;;;13.10;57.50;;;;;;4983118;28;20117;-80
2021/04/11 11:33:59;;;;;;;1.48;0.65;;;15.30;61.70;;;;;;4984798;28;20418;-80
2021/04/11 11:36:43;;;;;;;0.80;0.60;;;15.10;61.30;;;;;;4999042;28;20042;-80
2021/04/11 11:39:23;;;;;;;2.05;0.90;;;15.10;62.80;;;;;;4979057;28;20042;-80
2021/04/11 11:42:12;;;;;;;2.85;1.00;;;14.90;63.70;;;;;;4986482;28;20778;-81
2021/04/11 11:44:55;;;;;;;0.77;0.60;;;14.90;87.30;;;;;;4984505;28;20038;-80
2021/04/11 11:47:28;;;;;;;0.73;0.65;;;14.90;67.10;;;;;;4982500;28;20026;-80
2021/04/11 11:50:03;;;;;;;0.82;0.43;;;14.80;67.80;;;;;;4982357;28;20026;-79
2021/04/11 11:52:43;;;;;;;1.85;0.57;;;14.70;69.00;;;;;;4983034;28;20058;-81
2021/04/11 11:55:09;;;;;;;0.88;0.60;;;;;;;;;;4985750;28;20077;-80
2021/04/11 11:57:50;;;;;;;1.45;0.80;;;14.70;69.40;;;;;;4985541;28;20443;-81
2021/04/11 12:00:16;;;;;;;1.40;0.77;;;;;;;;;;4983877;28;20033;-80
2021/04/11 12:02:57;;;;;;;1.02;0.73;;;14.70;71.10;;;;;;4986981;28;20026;-81
2021/04/11 12:05:55;;;;;;;2.15;1.20;;;14.60;71.50;;;;;;4986851;28;20034;-80
2021/04/11 12:09:02;;;;;;;2.90;1.23;;;14.60;74.70;;;;;;4982727;28;20046;-81
2021/04/11 12:11:33;;;;;;;;;;;14.70;74.50;;;;;;4985294;28;20096;-81
2021/04/11 12:14:03;;;;;;;2.80;1.60;;;14.60;77.00;;;;;;4985114;28;19917;-81
2021/04/11 12:16:37;;;;;;;2.03;1.15;;;14.60;75.70;;;;;;4987409;28;20394;-80
2021/04/11 12:19:03;;;;;;;2.25;1.10;;;;;;;;;;4982852;28;20033;-81
2021/04/11 12:21:48;;;;;;;2.15;1.15;;;14.40;75.60;;;;;;4985932;28;20034;-81
2021/04/11 12:24:28;;;;;;;4.85;1.73;;;14.50;76.60;;;;;;4985088;28;20027;-81
2021/04/11 12:26:57;;;;;;;2.42;1.20;;;14.40;74.80;;;;;;4986783;28;20037;-81
2021/04/11 12:29:29;;;;;;;1.13;1.00;;;14.30;75.10;;;;;;4981333;28;20069;-81
2021/04/11 12:32:35;;;;;;;3.60;1.23;;;14.60;76.60;;;;;;4987493;28;20153;-80
2021/04/11 12:35:22;;;;;;;1.67;1.07;;;14.50;79.20;;;;;;4987783;28;20033;-80
2021/04/11 12:37:59;;;;;;;3.53;0.95;;;14.60;78.10;;;;;;4986054;28;20052;-82
2021/04/11 12:40:41;;;;;;;;;;;14.70;78.90;;;;;;4984607;28;20077;-81
2021/04/11 12:43:13;;;;;;;3.00;0.98;;;;;;;;;;4985122;28;19992;-81
2021/04/11 12:46:06;;;;;;;4.45;1.35;;;14.70;74.50;;;;;;4986613;28;20121;-82
2021/04/11 12:48:47;;;;;;;3.35;1.38;;;;;;;;;;4997952;28;20483;-81
2021/04/11 12:51:32;;;;;;;3.33;1.55;;;14.70;71.90;;;;;;4985104;28;20053;-80
2021/04/11 12:54:12;;;;;;;4.45;3.10;;;15.20;75.80;;;;;;4984715;28;20078;-81
2021/04/11 12:56:41;;;;;;;3.53;1.90;;;14.60;73.10;;;;;;4986470;28;20451;-81
2021/04/11 12:59:20;;;;;;;6.85;3.83;;;14.60;73.20;;;;;;4981665;28;20893;-80
2021/04/11 13:01:46;;;;;;;10.30;4.63;;;;;;;;;;4986889;28;20030;-80
2021/04/11 13:04:12;;;;;;;2.42;1.67;;;;;;;;;;4985757;28;20038;-81
2021/04/11 13:07:11;;;;;;;2.50;1.30;;;14.50;92.40;;;;;;4986643;28;20109;-80
2021/04/11 13:10:19;;;;;;;3.17;1.52;;;14.50;75.40;;;;;;4979103;28;20030;-80
2021/04/11 13:12:45;;;;;;;3.40;1.58;;;;;;;;;;4981065;28;20065;-80
2021/04/11 13:15:11;;;;;;;3.65;2.00;;;;;;;;;;4982793;28;20094;-80
2021/04/11 13:17:46;;;;;;;4.13;2.70;;;14.70;77.90;;;;;;4981809;28;20111;-81
2021/04/11 13:20:19;;;;;;;4.68;2.20;;;14.60;93.10;;;;;;4978764;28;20054;-80
2021/04/11 13:22:51;;;;;;;9.40;1.95;;;14.70;74.30;;;;;;4981598;28;20068;-82
2021/04/11 13:25:50;;;;;;;4.93;1.60;;;14.60;76.80;;;;;;4965737;28;20030;-80
2021/04/11 13:28:33;;;;;;;2.05;1.40;;;14.60;84.00;;;;;;4945649;28;20038;-81
2021/04/11 13:31:10;;;;;;;2.80;1.52;;;14.70;77.60;;;;;;4981159;28;20132;-81
2021/04/11 13:34:05;;;;;;;3.17;1.23;;;14.50;93.20;;;;;;4983118;28;20546;-81
2021/04/11 13:36:57;;;;;;;4.22;1.73;;;14.40;74.60;;;;;;4982526;28;20088;-80
2021/04/11 13:39:31;;;;;;;3.83;0.73;;;14.40;75.00;;;;;;4974074;28;20086;-82
2021/04/11 13:42:31;;;;;;;2.60;1.20;;;14.30;74.20;;;;;;4981847;28;20073;-80
2021/04/11 13:45:27;;;;;;;1.42;0.70;;;14.30;73.90;;;;;;4980986;28;20030;-80
2021/04/11 13:48:16;;;;;;;2.55;0.95;;;11.10;72.50;;;;;;4980656;28;20034;-82
2021/04/11 13:50:59;;;;;;;2.15;0.75;;;14.70;84.00;;;;;;4982762;28;20037;-81
2021/04/11 13:53:34;;;;;;;1.45;0.77;;;;;;;;;;4984530;28;20112;-81
2021/04/11 13:56:24;;;;;;;1.45;0.93;;;14.40;75.40;;;;;;4983254;28;20089;-80
2021/04/11 13:59:30;;;;;;;1.48;1.10;;;14.40;83.40;;;;;;4981368;28;20096;-80
2021/04/11 14:02:09;;;;;;;3.10;1.08;;;14.10;94.10;;;;;;4989288;28;20050;-80
2021/04/11 14:04:47;;;;;;;3.60;1.30;;;14.50;76.90;;;;;;4989616;28;20045;-81
2021/04/11 14:07:17;;;;;;;3.47;1.30;;;14.40;76.90;;;;;;4988768;28;20034;-81
2021/04/11 14:09:47;;;;;;;1.65;1.10;;;14.40;81.90;;;;;;4984578;28;20033;-81